sensor_id;sensor_type;location;lat;lon;timestamp;temperature;humidity
7518;DHT22;3800;48.922;9.444;2022-12-07T00:00:53;3.60;99.90
7518;DHT22;3800;48.922;9.444;2022-12-07T00:03:20;3.60;99.90
7518;DHT22;3800;48.922;9.444;2022-12-07T00:05:48;3.60;99.90
7518;DHT22;3800;48.922;9.444;2022-12-07T00:08:15;3.60;99.90
7518;DHT22;3800;48.922;9.444;2022-12-07T00:10:43;3.60;99.90
7518;DHT22;3800;48.922;9.444;2022-12-07T00:13:11;3.50;99.90
7518;DHT22;3800;48.922;9.444;2022-12-07T00:15:38;3.50;99.90
7518;DHT22;3800;48.922;9.444;2022-12-07T00:18:06;3.50;99.90
7518;DHT22;3800;48.922;9.444;2022-12-07T00:20:34;3.50;99.90
7518;DHT22;3800;48.922;9.444;2022-12-07T00:23:01;3.50;99.90
7518;DHT22;3800;48.922;9.444;2022-12-07T00:25:30;3.50;99.90
7518;DHT22;3800;48.922;9.444;2022-12-07T00:27:57;3.40;99.90
7518;DHT22;3800;48.922;9.444;2022-12-07T00:30:24;3.40;99.90
7518;DHT22;3800;48.922;9.444;2022-12-07T00:32:52;3.40;99.90
7518;DHT22;3800;48.922;9.444;2022-12-07T00:35:19;3.40;99.90
7518;DHT22;3800;48.922;9.444;2022-12-07T00:37:47;3.40;99.90
7518;DHT22;3800;48.922;9.444;2022-12-07T00:40:15;3.40;99.90
7518;DHT22;3800;48.922;9.444;2022-12-07T00:42:42;3.40;99.90
7518;DHT22;3800;48.922;9.444;2022-12-07T00:45:10;3.30;99.90
7518;DHT22;3800;48.922;9.444;2022-12-07T00:47:38;3.40;99.90
7518;DHT22;3800;48.922;9.444;2022-12-07T00:50:06;3.30;99.90
7518;DHT22;3800;48.922;9.444;2022-12-07T00:52:34;3.40;99.90
7518;DHT22;3800;48.922;9.444;2022-12-07T00:55:02;3.40;99.90
7518;DHT22;3800;48.922;9.444;2022-12-07T00:57:30;3.40;99.90
7518;DHT22;3800;48.922;9.444;2022-12-07T00:59:58;3.30;99.90
7518;DHT22;3800;48.922;9.444;2022-12-07T01:02:26;3.30;99.90
7518;DHT22;3800;48.922;9.444;2022-12-07T01:04:54;3.30;99.90
7518;DHT22;3800;48.922;9.444;2022-12-07T01:07:21;3.30;99.90
7518;DHT22;3800;48.922;9.444;2022-12-07T01:09:49;3.30;99.90
7518;DHT22;3800;48.922;9.444;2022-12-07T01:12:17;3.30;99.90
7518;DHT22;3800;48.922;9.444;2022-12-07T01:14:44;3.20;99.90
7518;DHT22;3800;48.922;9.444;2022-12-07T01:17:12;3.20;99.90
7518;DHT22;3800;48.922;9.444;2022-12-07T01:19:39;3.20;99.90
7518;DHT22;3800;48.922;9.444;2022-12-07T01:22:07;3.20;99.90
7518;DHT22;3800;48.922;9.444;2022-12-07T01:24:35;3.20;99.90
7518;DHT22;3800;48.922;9.444;2022-12-07T01:27:03;3.20;99.90
7518;DHT22;3800;48.922;9.444;2022-12-07T01:29:31;3.20;99.90
7518;DHT22;3800;48.922;9.444;2022-12-07T01:31:58;3.30;99.90
7518;DHT22;3800;48.922;9.444;2022-12-07T01:34:26;3.30;99.90
7518;DHT22;3800;48.922;9.444;2022-12-07T01:36:54;3.30;99.90
7518;DHT22;3800;48.922;9.444;2022-12-07T01:39:21;3.30;99.90
7518;DHT22;3800;48.922;9.444;2022-12-07T01:41:49;3.30;99.90
7518;DHT22;3800;48.922;9.444;2022-12-07T01:44:23;3.30;99.90
7518;DHT22;3800;48.922;9.444;2022-12-07T01:46:52;3.30;99.90
7518;DHT22;3800;48.922;9.444;2022-12-07T01:49:23;3.30;99.90
7518;DHT22;3800;48.922;9.444;2022-12-07T01:51:49;3.30;99.90
7518;DHT22;3800;48.922;9.444;2022-12-07T01:54:17;3.30;99.90
7518;DHT22;3800;48.922;9.444;2022-12-07T01:56:47;3.30;99.90
7518;DHT22;3800;48.922;9.444;2022-12-07T01:59:12;3.20;99.90
7518;DHT22;3800;48.922;9.444;2022-12-07T02:01:40;3.20;99.90
7518;DHT22;3800;48.922;9.444;2022-12-07T02:04:08;3.20;99.90
7518;DHT22;3800;48.922;9.444;2022-12-07T02:06:35;3.20;99.90
7518;DHT22;3800;48.922;9.444;2022-12-07T02:09:03;3.20;99.90
7518;DHT22;3800;48.922;9.444;2022-12-07T02:11:31;3.20;99.90
7518;DHT22;3800;48.922;9.444;2022-12-07T02:13:58;3.20;99.90
7518;DHT22;3800;48.922;9.444;2022-12-07T02:17:08;3.20;99.90
7518;DHT22;3800;48.922;9.444;2022-12-07T02:23:36;3.10;99.90
7518;DHT22;3800;48.922;9.444;2022-12-07T02:27:56;3.10;99.90
7518;DHT22;3800;48.922;9.444;2022-12-07T02:30:21;3.10;99.90
7518;DHT22;3800;48.922;9.444;2022-12-07T02:32:55;3.10;99.90
7518;DHT22;3800;48.922;9.444;2022-12-07T02:35:26;3.10;99.90
7518;DHT22;3800;48.922;9.444;2022-12-07T02:37:57;3.10;99.90
7518;DHT22;3800;48.922;9.444;2022-12-07T02:40:33;3.10;99.90
7518;DHT22;3800;48.922;9.444;2022-12-07T02:43:05;3.10;99.90
7518;DHT22;3800;48.922;9.444;2022-12-07T02:45:31;3.10;99.90
7518;DHT22;3800;48.922;9.444;2022-12-07T02:47:59;3.10;99.90
7518;DHT22;3800;48.922;9.444;2022-12-07T02:50:26;3.10;99.90
7518;DHT22;3800;48.922;9.444;2022-12-07T02:52:54;3.10;99.90
7518;DHT22;3800;48.922;9.444;2022-12-07T02:55:23;3.10;99.90
7518;DHT22;3800;48.922;9.444;2022-12-07T02:57:54;3.10;99.90
7518;DHT22;3800;48.922;9.444;2022-12-07T03:00:19;3.10;99.90
7518;DHT22;3800;48.922;9.444;2022-12-07T03:02:51;3.10;99.90
7518;DHT22;3800;48.922;9.444;2022-12-07T03:06:00;3.10;99.90
7518;DHT22;3800;48.922;9.444;2022-12-07T03:08:19;3.10;99.90
7518;DHT22;3800;48.922;9.444;2022-12-07T03:11:02;3.10;99.90
7518;DHT22;3800;48.922;9.444;2022-12-07T03:13:31;3.10;99.90
7518;DHT22;3800;48.922;9.444;2022-12-07T03:16:05;3.10;99.90
7518;DHT22;3800;48.922;9.444;2022-12-07T03:18:32;3.10;99.90
7518;DHT22;3800;48.922;9.444;2022-12-07T03:21:08;3.10;99.90
7518;DHT22;3800;48.922;9.444;2022-12-07T03:23:26;3.10;99.90
7518;DHT22;3800;48.922;9.444;2022-12-07T03:25:55;3.10;99.90
7518;DHT22;3800;48.922;9.444;2022-12-07T03:28:22;3.10;99.90
7518;DHT22;3800;48.922;9.444;2022-12-07T03:30:54;3.10;99.90
7518;DHT22;3800;48.922;9.444;2022-12-07T03:33:21;3.10;99.90
7518;DHT22;3800;48.922;9.444;2022-12-07T03:35:51;3.10;99.90
7518;DHT22;3800;48.922;9.444;2022-12-07T03:38:18;3.00;99.90
7518;DHT22;3800;48.922;9.444;2022-12-07T03:40:47;3.00;99.90
7518;DHT22;3800;48.922;9.444;2022-12-07T03:43:12;3.00;99.90
7518;DHT22;3800;48.922;9.444;2022-12-07T03:45:41;3.00;99.90
7518;DHT22;3800;48.922;9.444;2022-12-07T03:48:31;3.00;99.90
7518;DHT22;3800;48.922;9.444;2022-12-07T03:51:00;3.00;99.90
7518;DHT22;3800;48.922;9.444;2022-12-07T03:53:27;3.00;99.90
7518;DHT22;3800;48.922;9.444;2022-12-07T03:55:52;3.00;99.90
7518;DHT22;3800;48.922;9.444;2022-12-07T03:58:20;2.90;99.90
7518;DHT22;3800;48.922;9.444;2022-12-07T04:00:48;2.90;99.90
7518;DHT22;3800;48.922;9.444;2022-12-07T04:03:15;2.90;99.90
7518;DHT22;3800;48.922;9.444;2022-12-07T04:05:43;2.90;99.90
7518;DHT22;3800;48.922;9.444;2022-12-07T04:08:11;2.70;99.90
7518;DHT22;3800;48.922;9.444;2022-12-07T04:10:39;2.70;99.90
7518;DHT22;3800;48.922;9.444;2022-12-07T04:13:06;2.70;99.90
7518;DHT22;3800;48.922;9.444;2022-12-07T04:15:34;2.70;99.90
7518;DHT22;3800;48.922;9.444;2022-12-07T04:18:02;2.60;99.90
7518;DHT22;3800;48.922;9.444;2022-12-07T04:20:29;2.70;99.90
7518;DHT22;3800;48.922;9.444;2022-12-07T04:22:58;2.70;99.90
7518;DHT22;3800;48.922;9.444;2022-12-07T04:25:25;2.70;99.90
7518;DHT22;3800;48.922;9.444;2022-12-07T04:27:53;2.70;99.90
7518;DHT22;3800;48.922;9.444;2022-12-07T04:30:21;2.80;99.90
7518;DHT22;3800;48.922;9.444;2022-12-07T04:32:48;2.80;99.90
7518;DHT22;3800;48.922;9.444;2022-12-07T04:35:17;2.80;99.90
7518;DHT22;3800;48.922;9.444;2022-12-07T04:37:44;2.80;99.90
7518;DHT22;3800;48.922;9.444;2022-12-07T04:40:12;2.80;99.90
7518;DHT22;3800;48.922;9.444;2022-12-07T04:42:39;2.80;99.90
7518;DHT22;3800;48.922;9.444;2022-12-07T04:45:08;2.80;99.90
7518;DHT22;3800;48.922;9.444;2022-12-07T04:47:35;2.90;99.90
7518;DHT22;3800;48.922;9.444;2022-12-07T04:50:03;2.90;99.90
7518;DHT22;3800;48.922;9.444;2022-12-07T04:52:31;2.80;99.90
7518;DHT22;3800;48.922;9.444;2022-12-07T04:54:59;2.80;99.90
7518;DHT22;3800;48.922;9.444;2022-12-07T04:57:27;2.80;99.90
7518;DHT22;3800;48.922;9.444;2022-12-07T04:59:54;2.70;99.90
7518;DHT22;3800;48.922;9.444;2022-12-07T05:02:22;2.70;99.90
7518;DHT22;3800;48.922;9.444;2022-12-07T05:04:49;2.70;99.90
7518;DHT22;3800;48.922;9.444;2022-12-07T05:07:17;2.70;99.90
7518;DHT22;3800;48.922;9.444;2022-12-07T05:09:45;2.60;99.90
7518;DHT22;3800;48.922;9.444;2022-12-07T05:12:12;2.60;99.90
7518;DHT22;3800;48.922;9.444;2022-12-07T05:14:41;2.50;99.90
7518;DHT22;3800;48.922;9.444;2022-12-07T05:17:08;2.50;99.90
7518;DHT22;3800;48.922;9.444;2022-12-07T05:19:36;2.50;99.90
7518;DHT22;3800;48.922;9.444;2022-12-07T05:22:04;2.60;99.90
7518;DHT22;3800;48.922;9.444;2022-12-07T05:24:31;2.50;99.90
7518;DHT22;3800;48.922;9.444;2022-12-07T05:26:59;2.50;99.90
7518;DHT22;3800;48.922;9.444;2022-12-07T05:29:27;2.50;99.90
7518;DHT22;3800;48.922;9.444;2022-12-07T05:31:54;2.50;99.90
7518;DHT22;3800;48.922;9.444;2022-12-07T05:34:22;2.50;99.90
7518;DHT22;3800;48.922;9.444;2022-12-07T05:36:49;2.50;99.90
7518;DHT22;3800;48.922;9.444;2022-12-07T05:39:18;2.50;99.90
7518;DHT22;3800;48.922;9.444;2022-12-07T05:41:46;2.50;99.90
7518;DHT22;3800;48.922;9.444;2022-12-07T05:44:19;2.60;99.90
7518;DHT22;3800;48.922;9.444;2022-12-07T05:46:46;2.60;99.90
7518;DHT22;3800;48.922;9.444;2022-12-07T05:49:14;2.60;99.90
7518;DHT22;3800;48.922;9.444;2022-12-07T05:51:41;2.60;99.90
7518;DHT22;3800;48.922;9.444;2022-12-07T05:54:10;2.50;99.90
7518;DHT22;3800;48.922;9.444;2022-12-07T05:56:37;2.60;99.90
7518;DHT22;3800;48.922;9.444;2022-12-07T05:59:05;2.50;99.90
7518;DHT22;3800;48.922;9.444;2022-12-07T06:01:38;2.60;99.90
7518;DHT22;3800;48.922;9.444;2022-12-07T06:04:06;2.50;99.90
7518;DHT22;3800;48.922;9.444;2022-12-07T06:06:33;2.50;99.90
7518;DHT22;3800;48.922;9.444;2022-12-07T06:09:01;2.50;99.90
7518;DHT22;3800;48.922;9.444;2022-12-07T06:11:29;2.50;99.90
7518;DHT22;3800;48.922;9.444;2022-12-07T06:14:02;2.50;99.90
7518;DHT22;3800;48.922;9.444;2022-12-07T06:16:30;2.50;99.90
7518;DHT22;3800;48.922;9.444;2022-12-07T06:18:58;2.50;99.90
7518;DHT22;3800;48.922;9.444;2022-12-07T06:21:26;2.50;99.90
7518;DHT22;3800;48.922;9.444;2022-12-07T06:23:54;2.50;99.90
7518;DHT22;3800;48.922;9.444;2022-12-07T06:26:22;2.50;99.90
7518;DHT22;3800;48.922;9.444;2022-12-07T06:28:49;2.50;99.90
7518;DHT22;3800;48.922;9.444;2022-12-07T06:31:18;2.50;99.90
7518;DHT22;3800;48.922;9.444;2022-12-07T06:33:46;2.50;99.90
7518;DHT22;3800;48.922;9.444;2022-12-07T06:36:14;2.50;99.90
7518;DHT22;3800;48.922;9.444;2022-12-07T06:38:42;2.50;99.90
7518;DHT22;3800;48.922;9.444;2022-12-07T06:41:09;2.50;99.90
7518;DHT22;3800;48.922;9.444;2022-12-07T06:43:37;2.50;99.90
7518;DHT22;3800;48.922;9.444;2022-12-07T06:46:04;2.60;99.90
7518;DHT22;3800;48.922;9.444;2022-12-07T06:48:32;2.60;99.90
7518;DHT22;3800;48.922;9.444;2022-12-07T06:51:00;2.60;99.90
7518;DHT22;3800;48.922;9.444;2022-12-07T06:53:27;2.60;99.90
7518;DHT22;3800;48.922;9.444;2022-12-07T06:55:55;2.60;99.90
7518;DHT22;3800;48.922;9.444;2022-12-07T06:58:22;2.60;99.90
7518;DHT22;3800;48.922;9.444;2022-12-07T07:00:50;2.60;99.90
7518;DHT22;3800;48.922;9.444;2022-12-07T07:03:18;2.60;99.90
7518;DHT22;3800;48.922;9.444;2022-12-07T07:05:45;2.60;99.90
7518;DHT22;3800;48.922;9.444;2022-12-07T07:08:13;2.60;99.90
7518;DHT22;3800;48.922;9.444;2022-12-07T07:10:41;2.60;99.90
7518;DHT22;3800;48.922;9.444;2022-12-07T07:13:09;2.60;99.90
7518;DHT22;3800;48.922;9.444;2022-12-07T07:15:37;2.60;99.90
7518;DHT22;3800;48.922;9.444;2022-12-07T07:18:04;2.60;99.90
7518;DHT22;3800;48.922;9.444;2022-12-07T07:20:32;2.60;99.90
7518;DHT22;3800;48.922;9.444;2022-12-07T07:23:00;2.60;99.90
7518;DHT22;3800;48.922;9.444;2022-12-07T07:25:28;2.60;99.90
7518;DHT22;3800;48.922;9.444;2022-12-07T07:27:56;2.60;99.90
7518;DHT22;3800;48.922;9.444;2022-12-07T07:30:23;2.60;99.90
7518;DHT22;3800;48.922;9.444;2022-12-07T07:32:51;2.60;99.90
7518;DHT22;3800;48.922;9.444;2022-12-07T07:35:19;2.60;99.90
7518;DHT22;3800;48.922;9.444;2022-12-07T07:37:47;2.70;99.90
7518;DHT22;3800;48.922;9.444;2022-12-07T07:40:15;2.70;99.90
7518;DHT22;3800;48.922;9.444;2022-12-07T07:42:42;2.70;99.90
7518;DHT22;3800;48.922;9.444;2022-12-07T07:45:10;2.70;99.90
7518;DHT22;3800;48.922;9.444;2022-12-07T07:47:38;2.70;99.90
7518;DHT22;3800;48.922;9.444;2022-12-07T07:50:07;2.70;99.90
7518;DHT22;3800;48.922;9.444;2022-12-07T07:52:36;2.80;99.90
7518;DHT22;3800;48.922;9.444;2022-12-07T07:55:05;2.80;99.90
7518;DHT22;3800;48.922;9.444;2022-12-07T07:57:32;2.80;99.90
7518;DHT22;3800;48.922;9.444;2022-12-07T08:00:00;2.80;99.90
7518;DHT22;3800;48.922;9.444;2022-12-07T08:02:28;2.80;99.90
7518;DHT22;3800;48.922;9.444;2022-12-07T08:04:55;2.80;99.90
7518;DHT22;3800;48.922;9.444;2022-12-07T08:07:23;2.80;99.90
7518;DHT22;3800;48.922;9.444;2022-12-07T08:09:52;2.80;99.90
7518;DHT22;3800;48.922;9.444;2022-12-07T08:12:20;2.80;99.90
7518;DHT22;3800;48.922;9.444;2022-12-07T08:14:48;2.80;99.90
7518;DHT22;3800;48.922;9.444;2022-12-07T08:17:16;2.80;99.90
7518;DHT22;3800;48.922;9.444;2022-12-07T08:19:44;2.80;99.90
7518;DHT22;3800;48.922;9.444;2022-12-07T08:22:12;2.80;99.90
7518;DHT22;3800;48.922;9.444;2022-12-07T08:24:39;2.80;99.90
7518;DHT22;3800;48.922;9.444;2022-12-07T08:27:07;2.80;99.90
7518;DHT22;3800;48.922;9.444;2022-12-07T08:29:35;2.90;99.90
7518;DHT22;3800;48.922;9.444;2022-12-07T08:32:02;2.90;99.90
7518;DHT22;3800;48.922;9.444;2022-12-07T08:34:30;2.90;99.90
7518;DHT22;3800;48.922;9.444;2022-12-07T08:36:58;2.90;99.90
7518;DHT22;3800;48.922;9.444;2022-12-07T08:39:26;2.90;99.90
7518;DHT22;3800;48.922;9.444;2022-12-07T08:41:55;3.00;99.90
7518;DHT22;3800;48.922;9.444;2022-12-07T08:44:23;3.00;99.90
7518;DHT22;3800;48.922;9.444;2022-12-07T08:46:54;3.00;99.90
7518;DHT22;3800;48.922;9.444;2022-12-07T08:49:24;3.00;99.90
7518;DHT22;3800;48.922;9.444;2022-12-07T08:51:50;3.10;99.90
7518;DHT22;3800;48.922;9.444;2022-12-07T08:54:18;3.10;99.90
7518;DHT22;3800;48.922;9.444;2022-12-07T08:56:46;3.10;99.90
7518;DHT22;3800;48.922;9.444;2022-12-07T08:59:14;3.20;99.90
7518;DHT22;3800;48.922;9.444;2022-12-07T09:01:41;3.20;99.90
7518;DHT22;3800;48.922;9.444;2022-12-07T09:04:09;3.20;99.90
7518;DHT22;3800;48.922;9.444;2022-12-07T09:06:36;3.20;99.90
7518;DHT22;3800;48.922;9.444;2022-12-07T09:09:04;3.30;99.90
7518;DHT22;3800;48.922;9.444;2022-12-07T09:11:31;3.30;99.90
7518;DHT22;3800;48.922;9.444;2022-12-07T09:13:59;3.30;99.90
7518;DHT22;3800;48.922;9.444;2022-12-07T09:16:27;3.30;99.90
7518;DHT22;3800;48.922;9.444;2022-12-07T09:18:54;3.30;99.90
7518;DHT22;3800;48.922;9.444;2022-12-07T09:21:22;3.40;99.90
7518;DHT22;3800;48.922;9.444;2022-12-07T09:23:50;3.50;99.90
7518;DHT22;3800;48.922;9.444;2022-12-07T09:26:17;3.50;99.90
7518;DHT22;3800;48.922;9.444;2022-12-07T09:28:45;3.50;99.90
7518;DHT22;3800;48.922;9.444;2022-12-07T09:31:13;3.50;99.90
7518;DHT22;3800;48.922;9.444;2022-12-07T09:33:40;3.60;99.90
7518;DHT22;3800;48.922;9.444;2022-12-07T09:36:08;3.60;99.90
7518;DHT22;3800;48.922;9.444;2022-12-07T09:38:36;3.60;99.90
7518;DHT22;3800;48.922;9.444;2022-12-07T09:41:05;3.60;99.90
7518;DHT22;3800;48.922;9.444;2022-12-07T09:43:33;3.70;99.90
7518;DHT22;3800;48.922;9.444;2022-12-07T09:46:00;3.70;99.90
7518;DHT22;3800;48.922;9.444;2022-12-07T09:48:30;3.70;99.90
7518;DHT22;3800;48.922;9.444;2022-12-07T09:50:57;3.70;99.90
7518;DHT22;3800;48.922;9.444;2022-12-07T09:53:25;3.70;99.90
7518;DHT22;3800;48.922;9.444;2022-12-07T09:55:52;3.80;99.90
7518;DHT22;3800;48.922;9.444;2022-12-07T09:58:22;3.70;99.90
7518;DHT22;3800;48.922;9.444;2022-12-07T10:00:49;3.80;99.90
7518;DHT22;3800;48.922;9.444;2022-12-07T10:03:16;3.80;99.90
7518;DHT22;3800;48.922;9.444;2022-12-07T10:05:45;3.80;99.90
7518;DHT22;3800;48.922;9.444;2022-12-07T10:08:12;3.80;99.90
7518;DHT22;3800;48.922;9.444;2022-12-07T10:10:40;3.80;99.90
7518;DHT22;3800;48.922;9.444;2022-12-07T10:13:11;3.80;99.90
7518;DHT22;3800;48.922;9.444;2022-12-07T10:15:44;3.90;99.90
7518;DHT22;3800;48.922;9.444;2022-12-07T10:18:18;3.90;99.90
7518;DHT22;3800;48.922;9.444;2022-12-07T10:20:45;3.90;99.90
7518;DHT22;3800;48.922;9.444;2022-12-07T10:23:15;3.90;99.90
7518;DHT22;3800;48.922;9.444;2022-12-07T10:25:41;3.90;99.90
7518;DHT22;3800;48.922;9.444;2022-12-07T10:28:11;3.90;99.90
7518;DHT22;3800;48.922;9.444;2022-12-07T10:30:46;3.90;99.90
7518;DHT22;3800;48.922;9.444;2022-12-07T10:35:52;4.00;99.90
7518;DHT22;3800;48.922;9.444;2022-12-07T10:38:20;4.00;99.90
7518;DHT22;3800;48.922;9.444;2022-12-07T10:40:48;4.00;99.90
7518;DHT22;3800;48.922;9.444;2022-12-07T10:43:17;4.00;99.90
7518;DHT22;3800;48.922;9.444;2022-12-07T10:49:08;3.90;99.90
7518;DHT22;3800;48.922;9.444;2022-12-07T10:51:35;3.80;99.90
7518;DHT22;3800;48.922;9.444;2022-12-07T10:54:19;3.80;99.90
7518;DHT22;3800;48.922;9.444;2022-12-07T11:03:23;3.80;99.90
7518;DHT22;3800;48.922;9.444;2022-12-07T11:05:06;3.70;99.90
7518;DHT22;3800;48.922;9.444;2022-12-07T11:07:53;3.80;99.90
7518;DHT22;3800;48.922;9.444;2022-12-07T11:10:59;3.80;99.90
7518;DHT22;3800;48.922;9.444;2022-12-07T11:13:29;3.80;99.90
7518;DHT22;3800;48.922;9.444;2022-12-07T11:16:00;3.80;99.90
7518;DHT22;3800;48.922;9.444;2022-12-07T11:21:23;3.80;99.90
7518;DHT22;3800;48.922;9.444;2022-12-07T11:24:04;3.80;99.90
7518;DHT22;3800;48.922;9.444;2022-12-07T11:26:57;3.80;99.90
7518;DHT22;3800;48.922;9.444;2022-12-07T11:29:34;3.80;99.90
7518;DHT22;3800;48.922;9.444;2022-12-07T11:32:00;3.90;99.90
7518;DHT22;3800;48.922;9.444;2022-12-07T11:37:16;3.90;99.90
7518;DHT22;3800;48.922;9.444;2022-12-07T11:39:49;3.90;99.90
7518;DHT22;3800;48.922;9.444;2022-12-07T11:42:19;3.90;99.90
7518;DHT22;3800;48.922;9.444;2022-12-07T11:45:10;4.00;99.90
7518;DHT22;3800;48.922;9.444;2022-12-07T11:47:47;4.00;99.90
7518;DHT22;3800;48.922;9.444;2022-12-07T11:50:53;4.00;99.90
7518;DHT22;3800;48.922;9.444;2022-12-07T11:53:14;4.10;99.90
7518;DHT22;3800;48.922;9.444;2022-12-07T11:55:48;4.10;99.90
7518;DHT22;3800;48.922;9.444;2022-12-07T11:58:36;4.10;99.90
7518;DHT22;3800;48.922;9.444;2022-12-07T12:03:52;4.20;99.90
7518;DHT22;3800;48.922;9.444;2022-12-07T12:06:19;4.20;99.90
7518;DHT22;3800;48.922;9.444;2022-12-07T12:08:50;4.20;99.90
7518;DHT22;3800;48.922;9.444;2022-12-07T12:11:19;4.20;99.90
7518;DHT22;3800;48.922;9.444;2022-12-07T12:13:54;4.30;99.90
7518;DHT22;3800;48.922;9.444;2022-12-07T12:16:39;4.30;99.90
7518;DHT22;3800;48.922;9.444;2022-12-07T12:19:11;4.30;99.90
7518;DHT22;3800;48.922;9.444;2022-12-07T12:21:33;4.30;99.90
7518;DHT22;3800;48.922;9.444;2022-12-07T12:24:18;4.40;99.90
7518;DHT22;3800;48.922;9.444;2022-12-07T12:26:50;4.40;99.90
7518;DHT22;3800;48.922;9.444;2022-12-07T12:29:23;4.40;99.90
7518;DHT22;3800;48.922;9.444;2022-12-07T12:32:05;4.40;99.90
7518;DHT22;3800;48.922;9.444;2022-12-07T12:36:56;4.40;99.90
7518;DHT22;3800;48.922;9.444;2022-12-07T12:39:23;4.40;99.90
7518;DHT22;3800;48.922;9.444;2022-12-07T12:41:53;4.40;99.90
7518;DHT22;3800;48.922;9.444;2022-12-07T12:44:39;4.40;99.90
7518;DHT22;3800;48.922;9.444;2022-12-07T12:50:15;4.30;99.90
7518;DHT22;3800;48.922;9.444;2022-12-07T12:53:00;4.30;99.90
7518;DHT22;3800;48.922;9.444;2022-12-07T12:58:29;4.30;99.90
7518;DHT22;3800;48.922;9.444;2022-12-07T13:03:52;4.20;99.90
7518;DHT22;3800;48.922;9.444;2022-12-07T13:06:35;4.20;99.90
7518;DHT22;3800;48.922;9.444;2022-12-07T13:09:04;4.20;99.90
7518;DHT22;3800;48.922;9.444;2022-12-07T13:11:35;4.20;99.90
7518;DHT22;3800;48.922;9.444;2022-12-07T13:16:44;4.20;99.90
7518;DHT22;3800;48.922;9.444;2022-12-07T13:21:52;4.10;99.90
7518;DHT22;3800;48.922;9.444;2022-12-07T13:24:19;4.20;99.90
7518;DHT22;3800;48.922;9.444;2022-12-07T13:26:47;4.20;99.90
7518;DHT22;3800;48.922;9.444;2022-12-07T13:29:16;4.20;99.90
7518;DHT22;3800;48.922;9.444;2022-12-07T13:31:45;4.20;99.90
7518;DHT22;3800;48.922;9.444;2022-12-07T13:36:52;4.20;99.90
7518;DHT22;3800;48.922;9.444;2022-12-07T13:39:21;4.20;99.90
7518;DHT22;3800;48.922;9.444;2022-12-07T13:41:52;4.20;99.90
7518;DHT22;3800;48.922;9.444;2022-12-07T13:44:19;4.30;99.90
7518;DHT22;3800;48.922;9.444;2022-12-07T13:49:46;4.30;99.90
7518;DHT22;3800;48.922;9.444;2022-12-07T13:52:14;4.30;99.90
7518;DHT22;3800;48.922;9.444;2022-12-07T13:54:49;4.30;99.90
7518;DHT22;3800;48.922;9.444;2022-12-07T13:57:16;4.20;99.90
7518;DHT22;3800;48.922;9.444;2022-12-07T13:59:43;4.20;99.90
7518;DHT22;3800;48.922;9.444;2022-12-07T14:02:18;4.30;99.90
7518;DHT22;3800;48.922;9.444;2022-12-07T14:04:45;4.30;99.90
7518;DHT22;3800;48.922;9.444;2022-12-07T14:07:24;4.30;99.90
7518;DHT22;3800;48.922;9.444;2022-12-07T14:09:54;4.30;99.90
7518;DHT22;3800;48.922;9.444;2022-12-07T14:12:21;4.30;99.90
7518;DHT22;3800;48.922;9.444;2022-12-07T14:14:48;4.30;99.90
7518;DHT22;3800;48.922;9.444;2022-12-07T14:17:17;4.30;99.90
7518;DHT22;3800;48.922;9.444;2022-12-07T14:19:47;4.30;99.90
7518;DHT22;3800;48.922;9.444;2022-12-07T14:22:25;4.30;99.90
7518;DHT22;3800;48.922;9.444;2022-12-07T14:24:57;4.30;99.90
7518;DHT22;3800;48.922;9.444;2022-12-07T14:27:21;4.30;99.90
7518;DHT22;3800;48.922;9.444;2022-12-07T14:29:48;4.20;99.90
7518;DHT22;3800;48.922;9.444;2022-12-07T14:32:27;4.20;99.90
7518;DHT22;3800;48.922;9.444;2022-12-07T14:34:59;4.20;99.90
7518;DHT22;3800;48.922;9.444;2022-12-07T14:37:26;4.20;99.90
7518;DHT22;3800;48.922;9.444;2022-12-07T14:39:53;4.20;99.90
7518;DHT22;3800;48.922;9.444;2022-12-07T14:42:21;4.20;99.90
7518;DHT22;3800;48.922;9.444;2022-12-07T14:44:48;4.20;99.90
7518;DHT22;3800;48.922;9.444;2022-12-07T14:47:16;4.20;99.90
7518;DHT22;3800;48.922;9.444;2022-12-07T14:49:44;4.10;99.90
7518;DHT22;3800;48.922;9.444;2022-12-07T14:52:13;4.10;99.90
7518;DHT22;3800;48.922;9.444;2022-12-07T14:54:40;4.10;99.90
7518;DHT22;3800;48.922;9.444;2022-12-07T14:57:09;4.10;99.90
7518;DHT22;3800;48.922;9.444;2022-12-07T14:59:37;4.10;99.90
7518;DHT22;3800;48.922;9.444;2022-12-07T15:02:05;4.10;99.90
7518;DHT22;3800;48.922;9.444;2022-12-07T15:04:33;4.10;99.90
7518;DHT22;3800;48.922;9.444;2022-12-07T15:07:01;4.00;99.90
7518;DHT22;3800;48.922;9.444;2022-12-07T15:09:28;4.10;99.90
7518;DHT22;3800;48.922;9.444;2022-12-07T15:11:56;4.00;99.90
7518;DHT22;3800;48.922;9.444;2022-12-07T15:14:24;4.00;99.90
7518;DHT22;3800;48.922;9.444;2022-12-07T15:16:52;4.00;99.90
7518;DHT22;3800;48.922;9.444;2022-12-07T15:19:20;4.00;99.90
7518;DHT22;3800;48.922;9.444;2022-12-07T15:21:47;4.00;99.90
7518;DHT22;3800;48.922;9.444;2022-12-07T15:24:15;4.00;99.90
7518;DHT22;3800;48.922;9.444;2022-12-07T15:26:43;3.90;99.90
7518;DHT22;3800;48.922;9.444;2022-12-07T15:29:11;3.90;99.90
7518;DHT22;3800;48.922;9.444;2022-12-07T15:31:38;3.90;99.90
7518;DHT22;3800;48.922;9.444;2022-12-07T15:34:06;3.90;99.90
7518;DHT22;3800;48.922;9.444;2022-12-07T15:36:34;3.90;99.90
7518;DHT22;3800;48.922;9.444;2022-12-07T15:39:02;3.90;99.90
7518;DHT22;3800;48.922;9.444;2022-12-07T15:41:30;3.80;99.90
7518;DHT22;3800;48.922;9.444;2022-12-07T15:43:58;3.80;99.90
7518;DHT22;3800;48.922;9.444;2022-12-07T15:46:34;3.80;99.90
7518;DHT22;3800;48.922;9.444;2022-12-07T15:49:01;3.80;99.90
7518;DHT22;3800;48.922;9.444;2022-12-07T15:51:28;3.80;99.90
7518;DHT22;3800;48.922;9.444;2022-12-07T15:53:57;3.70;99.90
7518;DHT22;3800;48.922;9.444;2022-12-07T15:56:24;3.70;99.90
7518;DHT22;3800;48.922;9.444;2022-12-07T15:58:52;3.70;99.90
7518;DHT22;3800;48.922;9.444;2022-12-07T16:01:19;3.70;99.90
7518;DHT22;3800;48.922;9.444;2022-12-07T16:03:47;3.70;99.90
7518;DHT22;3800;48.922;9.444;2022-12-07T16:06:16;3.60;99.90
7518;DHT22;3800;48.922;9.444;2022-12-07T16:08:44;3.60;99.90
7518;DHT22;3800;48.922;9.444;2022-12-07T16:11:11;3.60;99.90
7518;DHT22;3800;48.922;9.444;2022-12-07T16:13:39;3.60;99.90
7518;DHT22;3800;48.922;9.444;2022-12-07T16:16:07;3.50;99.90
7518;DHT22;3800;48.922;9.444;2022-12-07T16:18:34;3.50;99.90
7518;DHT22;3800;48.922;9.444;2022-12-07T16:21:02;3.50;99.90
7518;DHT22;3800;48.922;9.444;2022-12-07T16:23:29;3.50;99.90
7518;DHT22;3800;48.922;9.444;2022-12-07T16:26:04;3.50;99.90
7518;DHT22;3800;48.922;9.444;2022-12-07T16:28:30;3.50;99.90
7518;DHT22;3800;48.922;9.444;2022-12-07T16:31:02;3.50;99.90
7518;DHT22;3800;48.922;9.444;2022-12-07T16:33:28;3.50;99.90
7518;DHT22;3800;48.922;9.444;2022-12-07T16:35:57;3.50;99.90
7518;DHT22;3800;48.922;9.444;2022-12-07T16:38:25;3.50;99.90
7518;DHT22;3800;48.922;9.444;2022-12-07T16:40:52;3.40;99.90
7518;DHT22;3800;48.922;9.444;2022-12-07T16:43:20;3.40;99.90
7518;DHT22;3800;48.922;9.444;2022-12-07T16:45:47;3.40;99.90
7518;DHT22;3800;48.922;9.444;2022-12-07T16:48:16;3.40;99.90
7518;DHT22;3800;48.922;9.444;2022-12-07T16:50:44;3.40;99.90
7518;DHT22;3800;48.922;9.444;2022-12-07T16:53:12;3.40;99.90
7518;DHT22;3800;48.922;9.444;2022-12-07T16:55:41;3.40;99.90
7518;DHT22;3800;48.922;9.444;2022-12-07T16:58:09;3.40;99.90
7518;DHT22;3800;48.922;9.444;2022-12-07T17:00:37;3.40;99.90
7518;DHT22;3800;48.922;9.444;2022-12-07T17:03:05;3.40;99.90
7518;DHT22;3800;48.922;9.444;2022-12-07T17:05:32;3.40;99.90
7518;DHT22;3800;48.922;9.444;2022-12-07T17:08:01;3.40;99.90
7518;DHT22;3800;48.922;9.444;2022-12-07T17:10:27;3.40;99.90
7518;DHT22;3800;48.922;9.444;2022-12-07T17:12:55;3.40;99.90
7518;DHT22;3800;48.922;9.444;2022-12-07T17:15:23;3.40;99.90
7518;DHT22;3800;48.922;9.444;2022-12-07T17:17:53;3.40;99.90